createdAt,value
2023-01-10T00:00:48.631Z,30.45
2023-01-10T00:03:15.227Z,27.00
2023-01-10T00:05:41.894Z,26.63
2023-01-10T00:08:09.328Z,25.92
2023-01-10T00:10:36.664Z,33.88
2023-01-10T00:13:21.542Z,26.23
2023-01-10T00:15:48.582Z,34.63
2023-01-10T00:18:15.336Z,33.65
2023-01-10T00:20:42.015Z,24.65
2023-01-10T00:23:08.567Z,29.17
2023-01-10T00:25:36.271Z,28.77
2023-01-10T00:28:10.885Z,33.08
2023-01-10T00:30:39.748Z,32.58
2023-01-10T00:33:07.737Z,25.73
2023-01-10T00:35:35.128Z,30.45
2023-01-10T00:38:05.724Z,26.92
2023-01-10T00:40:33.611Z,20.38
2023-01-10T00:43:19.517Z,23.73
2023-01-10T00:45:47.014Z,32.42
2023-01-10T00:48:17.292Z,23.13
2023-01-10T00:50:44.136Z,28.45
2023-01-10T00:53:10.750Z,27.27
2023-01-10T00:55:37.295Z,30.65
2023-01-10T00:58:04.440Z,40.72
2023-01-10T01:00:31.075Z,22.15
2023-01-10T01:02:57.948Z,21.70
2023-01-10T01:05:24.530Z,23.50
2023-01-10T01:07:52.332Z,26.50
2023-01-10T01:10:28.109Z,20.52
2023-01-10T01:13:10.904Z,25.17
2023-01-10T01:15:37.756Z,30.33
2023-01-10T01:18:04.649Z,32.25
2023-01-10T01:20:31.423Z,24.58
2023-01-10T01:22:57.994Z,42.40
2023-01-10T01:25:24.902Z,24.08
2023-01-10T01:27:51.606Z,28.95
2023-01-10T01:30:18.208Z,22.77
2023-01-10T01:32:44.869Z,29.27
2023-01-10T01:35:14.710Z,18.92
2023-01-10T01:37:42.244Z,27.88
2023-01-10T01:40:15.269Z,31.35
2023-01-10T01:42:43.175Z,28.58
2023-01-10T01:45:09.662Z,30.25
2023-01-10T01:47:41.218Z,26.27
2023-01-10T01:50:19.424Z,27.95
2023-01-10T01:52:48.997Z,23.95
2023-01-10T01:55:15.739Z,20.35
2023-01-10T01:57:42.798Z,23.70
2023-01-10T02:00:10.681Z,25.13
2023-01-10T02:03:01.250Z,19.25
2023-01-10T02:05:28.777Z,18.52
2023-01-10T02:07:59.909Z,20.65
2023-01-10T02:10:29.411Z,28.50
2023-01-10T02:13:01.539Z,18.67
2023-01-10T02:15:29.199Z,22.48
2023-01-10T02:17:58.243Z,24.10
2023-01-10T02:20:26.706Z,28.27
2023-01-10T02:23:17.268Z,24.77
2023-01-10T02:26:16.257Z,25.08
2023-01-10T02:28:54.113Z,16.27
2023-01-10T02:31:51.809Z,22.92
2023-01-10T02:34:34.967Z,26.13
2023-01-10T02:37:19.363Z,16.75
2023-01-10T02:40:07.958Z,23.83
2023-01-10T02:43:04.299Z,23.20
2023-01-10T02:45:39.980Z,27.75
2023-01-10T02:48:06.899Z,15.23
2023-01-10T02:50:36.156Z,31.08
2023-01-10T02:53:25.777Z,20.13
2023-01-10T02:56:14.272Z,25.05
2023-01-10T02:59:02.407Z,23.85
2023-01-10T03:01:57.876Z,20.00
2023-01-10T03:04:39.800Z,18.40
2023-01-10T03:07:15.274Z,23.17
2023-01-10T03:10:13.748Z,20.38
2023-01-10T03:12:51.610Z,19.17
2023-01-10T03:15:20.977Z,26.38
2023-01-10T03:17:51.919Z,24.02
2023-01-10T03:20:21.143Z,20.60
2023-01-10T03:22:48.471Z,21.77
2023-01-10T03:25:18.344Z,21.90
2023-01-10T03:27:52.680Z,23.50
2023-01-10T03:30:37.674Z,21.33
2023-01-10T03:33:05.356Z,21.45
2023-01-10T03:35:44.856Z,25.60
2023-01-10T03:38:47.801Z,19.65
2023-01-10T03:41:40.879Z,24.42
2023-01-10T03:44:41.131Z,25.80
2023-01-10T03:47:13.430Z,26.92
2023-01-10T03:49:42.425Z,31.75
2023-01-10T03:52:14.095Z,20.05
2023-01-10T03:54:43.035Z,19.98
2023-01-10T03:57:16.380Z,22.55
2023-01-10T03:59:43.407Z,24.63
2023-01-10T04:02:10.026Z,31.67
2023-01-10T04:04:36.576Z,30.95
2023-01-10T04:07:03.167Z,19.33
2023-01-10T04:09:29.724Z,25.55
2023-01-10T04:11:56.487Z,26.02
2023-01-10T04:14:23.069Z,30.35
2023-01-10T04:16:49.694Z,27.02
2023-01-10T04:19:16.272Z,19.95
2023-01-10T04:21:42.836Z,30.13
2023-01-10T04:24:09.606Z,30.77
2023-01-10T04:26:36.217Z,20.52
2023-01-10T04:29:02.985Z,25.83
2023-01-10T04:31:29.663Z,18.00
2023-01-10T04:33:56.295Z,23.90
2023-01-10T04:36:22.833Z,32.95
2023-01-10T04:38:49.378Z,25.67
2023-01-10T04:41:16.036Z,22.40
2023-01-10T04:43:42.728Z,18.95
2023-01-10T04:46:09.457Z,27.08
2023-01-10T04:48:37.408Z,21.30
2023-01-10T04:51:04.302Z,28.17
2023-01-10T04:53:30.955Z,22.88
2023-01-10T04:56:06.352Z,22.00
2023-01-10T04:58:38.086Z,25.58
2023-01-10T05:01:12.818Z,32.45
2023-01-10T05:03:40.042Z,25.80
2023-01-10T05:06:07.465Z,29.98
2023-01-10T05:08:34.448Z,25.38
2023-01-10T05:11:01.101Z,27.08
2023-01-10T05:13:28.130Z,20.23
2023-01-10T05:15:58.495Z,24.13
2023-01-10T05:18:26.300Z,25.98
2023-01-10T05:20:53.083Z,21.90
2023-01-10T05:23:19.655Z,23.67
2023-01-10T05:25:46.258Z,20.73
2023-01-10T05:28:12.827Z,26.35
2023-01-10T05:30:39.410Z,26.48
2023-01-10T05:33:06.053Z,24.38
2023-01-10T05:35:32.818Z,29.92
2023-01-10T05:37:59.385Z,26.30
2023-01-10T05:40:25.943Z,22.48
2023-01-10T05:42:52.476Z,27.50
2023-01-10T05:45:19.339Z,19.15
2023-01-10T05:47:45.913Z,25.25
2023-01-10T05:50:12.645Z,35.95
2023-01-10T05:52:39.233Z,31.48
2023-01-10T05:55:06.209Z,26.65
2023-01-10T05:57:32.808Z,26.70
2023-01-10T05:59:59.454Z,30.90
2023-01-10T06:02:26.720Z,26.67
2023-01-10T06:04:55.601Z,17.85
2023-01-10T06:07:23.031Z,30.23
2023-01-10T06:09:51.415Z,21.73
2023-01-10T06:12:21.159Z,25.60
2023-01-10T06:14:47.706Z,31.05
2023-01-10T06:17:14.280Z,22.55
2023-01-10T06:19:40.960Z,20.50
2023-01-10T06:22:07.589Z,23.73
2023-01-10T06:24:34.124Z,22.13
2023-01-10T06:27:00.840Z,36.30
2023-01-10T06:29:27.401Z,19.73
2023-01-10T06:31:53.991Z,22.88
2023-01-10T06:34:20.616Z,33.50
2023-01-10T06:36:47.167Z,31.08
2023-01-10T06:39:13.758Z,31.25
2023-01-10T06:41:40.382Z,31.35
2023-01-10T06:44:06.936Z,23.95
2023-01-10T06:46:33.533Z,29.38
2023-01-10T06:49:00.195Z,30.77
2023-01-10T06:51:27.027Z,34.67
2023-01-10T06:53:53.671Z,31.17
2023-01-10T06:56:20.324Z,34.97
2023-01-10T06:58:49.724Z,31.48
2023-01-10T07:01:19.173Z,31.88
2023-01-10T07:03:45.934Z,20.25
2023-01-10T07:06:13.027Z,20.75
2023-01-10T07:08:45.674Z,26.27
2023-01-10T07:11:14.729Z,25.38
2023-01-10T07:13:41.850Z,28.25
2023-01-10T07:16:11.217Z,23.30
2023-01-10T07:18:40.210Z,27.67
2023-01-10T07:21:07.636Z,29.67
2023-01-10T07:23:34.558Z,27.55
2023-01-10T07:26:05.971Z,34.75
2023-01-10T07:28:34.617Z,29.75
2023-01-10T07:31:02.563Z,30.95
2023-01-10T07:33:29.798Z,23.48
2023-01-10T07:35:56.397Z,33.80
2023-01-10T07:38:23.132Z,27.33
2023-01-10T07:40:49.818Z,26.05
2023-01-10T07:43:16.645Z,32.90
2023-01-10T07:45:43.312Z,31.33
2023-01-10T07:48:10.132Z,24.52
2023-01-10T07:50:36.989Z,28.50
2023-01-10T07:53:05.817Z,27.90
2023-01-10T07:55:34.702Z,23.27
2023-01-10T07:58:01.402Z,30.17
2023-01-10T08:00:28.380Z,30.40
2023-01-10T08:02:56.134Z,26.92
2023-01-10T08:05:23.984Z,28.77
2023-01-10T08:07:50.767Z,29.15
2023-01-10T08:10:17.659Z,27.42
2023-01-10T08:12:44.321Z,33.97
2023-01-10T08:15:11.124Z,27.52
2023-01-10T08:17:37.783Z,38.25
2023-01-10T08:20:06.132Z,35.63
2023-01-10T08:22:32.723Z,29.60
2023-01-10T08:24:59.360Z,27.80
2023-01-10T08:27:25.945Z,23.17
2023-01-10T08:29:52.668Z,36.17
2023-01-10T08:32:19.331Z,39.55
2023-01-10T08:34:45.937Z,32.90
2023-01-10T08:37:14.093Z,34.20
2023-01-10T08:39:41.182Z,34.50
2023-01-10T08:42:07.855Z,30.45
2023-01-10T08:44:35.020Z,31.13
2023-01-10T08:47:01.740Z,28.20
2023-01-10T08:49:28.302Z,34.30
2023-01-10T08:51:54.979Z,27.67
2023-01-10T08:54:21.737Z,35.25
2023-01-10T08:56:48.311Z,28.92
2023-01-10T08:59:15.967Z,30.80
2023-01-10T09:01:42.595Z,32.33
2023-01-10T09:04:09.207Z,26.85
2023-01-10T09:06:36.422Z,36.25
2023-01-10T09:09:03.302Z,23.70
2023-01-10T09:11:29.884Z,27.83
2023-01-10T09:13:56.599Z,32.60
2023-01-10T09:16:23.900Z,24.70
2023-01-10T09:18:50.518Z,30.90
2023-01-10T09:21:17.139Z,32.30
2023-01-10T09:23:44.392Z,30.15
2023-01-10T09:26:11.070Z,22.33
2023-01-10T09:28:37.794Z,23.33
2023-01-10T09:31:05.231Z,34.50
2023-01-10T09:33:45.279Z,26.73
2023-01-10T09:36:15.521Z,35.37
2023-01-10T09:38:42.405Z,25.38
2023-01-10T09:41:24.197Z,22.20
2023-01-10T09:44:18.748Z,18.95
2023-01-10T09:47:00.804Z,22.77
2023-01-10T09:50:30.304Z,26.85
2023-01-10T09:53:04.235Z,27.80
2023-01-10T09:55:33.916Z,25.77
2023-01-10T09:58:05.389Z,27.23
2023-01-10T10:00:42.614Z,25.73
2023-01-10T10:03:24.653Z,25.92
2023-01-10T10:05:55.955Z,27.58
2023-01-10T10:08:25.175Z,27.92
2023-01-10T10:10:55.988Z,32.03
2023-01-10T10:13:47.713Z,34.25
2023-01-10T10:16:32.913Z,39.03
2023-01-10T10:19:17.835Z,32.42
2023-01-10T10:21:55.814Z,27.75
2023-01-10T10:24:28.157Z,30.80
2023-01-10T10:27:27.524Z,28.05
2023-01-10T10:30:17.289Z,34.45
2023-01-10T10:32:46.925Z,29.67
2023-01-10T10:35:35.215Z,25.55
2023-01-10T10:38:17.029Z,33.47
2023-01-10T10:40:46.850Z,24.10
2023-01-10T10:43:21.688Z,30.30
2023-01-10T10:45:54.381Z,24.50
2023-01-10T10:48:25.938Z,28.60
2023-01-10T10:51:08.760Z,31.70
2023-01-10T10:53:36.300Z,33.97
2023-01-10T10:56:05.945Z,32.97
2023-01-10T10:58:33.324Z,36.88
2023-01-10T11:01:01.062Z,24.92
2023-01-10T11:03:48.436Z,27.95
2023-01-10T11:06:17.352Z,27.17
2023-01-10T11:08:47.064Z,21.67
2023-01-10T11:11:31.629Z,31.13
2023-01-10T11:14:00.565Z,25.23
2023-01-10T11:16:31.492Z,28.88
2023-01-10T11:19:18.389Z,27.52
2023-01-10T11:21:59.091Z,30.67
2023-01-10T11:24:35.644Z,27.63
2023-01-10T11:27:13.477Z,28.67
2023-01-10T11:29:46.282Z,19.50
2023-01-10T11:32:17.199Z,25.25
2023-01-10T11:34:55.237Z,36.28
2023-01-10T11:37:29.002Z,31.17
2023-01-10T11:40:17.432Z,34.00
2023-01-10T11:42:44.482Z,34.15
2023-01-10T11:45:20.388Z,30.52
2023-01-10T11:47:51.683Z,39.35
2023-01-10T11:50:28.510Z,31.40
2023-01-10T11:52:56.579Z,26.27
2023-01-10T11:55:27.467Z,32.50
2023-01-10T11:58:05.847Z,30.67
2023-01-10T12:00:38.061Z,24.48
2023-01-10T12:03:20.404Z,35.97
2023-01-10T12:06:00.505Z,34.78
2023-01-10T12:08:36.089Z,33.45
2023-01-10T12:11:17.678Z,29.17
2023-01-10T12:13:50.505Z,31.60
2023-01-10T12:16:22.546Z,28.00
2023-01-10T12:18:51.829Z,27.10
2023-01-10T12:21:42.889Z,29.15
2023-01-10T12:24:22.459Z,25.27
2023-01-10T12:26:51.086Z,23.92
2023-01-10T12:29:42.615Z,30.40
2023-01-10T12:32:23.377Z,24.57
2023-01-10T12:35:03.378Z,33.00
2023-01-10T12:37:35.703Z,27.98
2023-01-10T12:40:11.194Z,24.50
2023-01-10T12:43:31.931Z,26.08
2023-01-10T12:46:21.109Z,25.55
2023-01-10T12:49:01.622Z,23.80
2023-01-10T12:51:29.862Z,25.17
2023-01-10T12:54:04.769Z,22.40
2023-01-10T12:56:32.805Z,19.08
2023-01-10T12:59:08.027Z,21.75
2023-01-10T13:01:40.748Z,28.23
2023-01-10T13:04:12.673Z,24.67
2023-01-10T13:06:42.782Z,26.45
2023-01-10T13:09:17.328Z,24.10
2023-01-10T13:11:53.029Z,26.98
2023-01-10T13:14:27.570Z,30.90
2023-01-10T13:17:21.870Z,22.40
2023-01-10T13:20:17.561Z,23.17
2023-01-10T13:22:51.480Z,24.67
2023-01-10T13:25:26.527Z,25.95
2023-01-10T13:27:59.532Z,26.00
2023-01-10T13:30:33.958Z,20.17
2023-01-10T13:33:26.205Z,16.48
2023-01-10T13:35:56.845Z,26.30
2023-01-10T13:38:30.803Z,18.40
2023-01-10T13:41:29.740Z,25.27
2023-01-10T13:44:13.850Z,18.10
2023-01-10T13:46:45.227Z,20.95
2023-01-10T13:49:11.728Z,31.38
2023-01-10T13:51:59.212Z,23.00
2023-01-10T13:54:27.713Z,26.63
2023-01-10T13:56:54.249Z,26.92
2023-01-10T13:59:42.293Z,22.63
2023-01-10T14:02:29.020Z,25.92
2023-01-10T14:05:17.715Z,17.05
2023-01-10T14:07:49.956Z,21.40
2023-01-10T14:10:39.746Z,26.48
2023-01-10T14:13:16.225Z,22.63
2023-01-10T14:15:46.091Z,27.60
2023-01-10T14:18:45.813Z,25.30
2023-01-10T14:21:24.397Z,24.73
2023-01-10T14:23:54.009Z,23.77
2023-01-10T14:26:39.058Z,26.48
2023-01-10T14:29:15.928Z,20.23
2023-01-10T14:31:47.950Z,26.60
2023-01-10T14:37:06.161Z,21.70
2023-01-10T14:39:33.568Z,23.45
2023-01-10T14:42:07.212Z,26.77
2023-01-10T14:44:59.302Z,24.95
2023-01-10T14:47:30.590Z,16.30
2023-01-10T14:50:06.853Z,21.77
2023-01-10T14:52:34.129Z,25.27
2023-01-10T14:55:04.088Z,20.90
2023-01-10T14:57:31.147Z,30.02
2023-01-10T15:00:17.648Z,28.00
2023-01-10T15:02:49.049Z,22.55
2023-01-10T15:05:23.857Z,20.80
2023-01-10T15:07:50.604Z,21.52
2023-01-10T15:10:23.875Z,23.65
2023-01-10T15:12:56.231Z,20.15
2023-01-10T15:15:29.997Z,23.30
2023-01-10T15:17:58.168Z,19.30
2023-01-10T15:20:25.152Z,21.52
2023-01-10T15:23:01.028Z,27.80
2023-01-10T15:25:31.959Z,22.00
2023-01-10T15:27:59.986Z,21.95
2023-01-10T15:30:35.128Z,16.15
2023-01-10T15:33:05.110Z,21.92
2023-01-10T15:35:36.536Z,20.30
2023-01-10T15:38:16.790Z,25.58
2023-01-10T15:40:44.394Z,21.73
2023-01-10T15:43:30.036Z,28.58
2023-01-10T15:45:58.615Z,21.35
2023-01-10T15:48:56.032Z,26.42
2023-01-10T15:51:34.466Z,37.58
2023-01-10T15:54:25.603Z,22.50
2023-01-10T15:56:56.449Z,21.63
2023-01-10T15:59:40.056Z,22.52
2023-01-10T16:02:13.569Z,23.58
2023-01-10T16:04:40.827Z,22.90
2023-01-10T16:07:23.003Z,18.90
2023-01-10T16:12:51.781Z,17.83
2023-01-10T16:15:22.486Z,18.92
2023-01-10T16:17:50.105Z,18.23
2023-01-10T16:20:25.584Z,36.95
2023-01-10T16:22:53.025Z,20.70
2023-01-10T16:25:25.119Z,22.35
2023-01-10T16:27:51.881Z,21.35
2023-01-10T16:30:24.311Z,21.13
2023-01-10T16:32:51.650Z,24.65
2023-01-10T16:35:19.638Z,25.65
2023-01-10T16:37:49.479Z,21.60
2023-01-10T16:40:23.813Z,21.58
2023-01-10T16:43:08.655Z,23.25
2023-01-10T16:45:35.448Z,20.52
2023-01-10T16:48:02.310Z,22.63
2023-01-10T16:50:29.103Z,20.52
2023-01-10T16:52:56.033Z,18.75
2023-01-10T16:55:29.705Z,27.92
2023-01-10T16:57:56.515Z,27.52
2023-01-10T17:00:23.240Z,20.98
2023-01-10T17:02:49.997Z,17.77
2023-01-10T17:05:16.868Z,29.17
2023-01-10T17:07:43.508Z,21.85
2023-01-10T17:10:10.580Z,22.65
2023-01-10T17:12:38.532Z,24.65
2023-01-10T17:15:08.328Z,22.30
2023-01-10T17:17:35.180Z,22.85
2023-01-10T17:20:01.930Z,19.90
2023-01-10T17:22:28.703Z,21.05
2023-01-10T17:24:55.370Z,22.02
2023-01-10T17:27:22.036Z,21.15
2023-01-10T17:29:48.616Z,26.10
2023-01-10T17:32:15.249Z,22.38
2023-01-10T17:34:41.809Z,22.40
2023-01-10T17:37:08.467Z,16.65
2023-01-10T17:39:37.759Z,22.40
2023-01-10T17:42:06.163Z,13.20
2023-01-10T17:44:32.827Z,14.15
2023-01-10T17:46:59.392Z,16.35
2023-01-10T17:49:26.054Z,20.20
2023-01-10T17:51:53.770Z,18.63
2023-01-10T17:54:21.252Z,23.85
2023-01-10T17:56:48.137Z,19.40
2023-01-10T17:59:14.801Z,17.63
2023-01-10T18:01:42.309Z,24.05
2023-01-10T18:04:09.124Z,12.50
2023-01-10T18:06:35.718Z,13.70
2023-01-10T18:09:02.350Z,17.70
2023-01-10T18:11:30.829Z,12.88
2023-01-10T18:13:57.711Z,21.55
2023-01-10T18:16:27.107Z,18.92
2023-01-10T18:18:53.902Z,14.07
2023-01-10T18:21:20.554Z,14.48
2023-01-10T18:23:47.697Z,13.48
2023-01-10T18:26:14.684Z,19.75
2023-01-10T18:28:44.082Z,8.15
2023-01-10T18:31:19.896Z,12.85
2023-01-10T18:33:47.976Z,11.05
2023-01-10T18:36:17.911Z,8.45
2023-01-10T18:38:46.031Z,8.25
2023-01-10T18:41:13.182Z,8.90
2023-01-10T18:43:40.074Z,9.05
2023-01-10T18:46:10.657Z,7.72
2023-01-10T18:48:37.416Z,6.68
2023-01-10T18:51:05.286Z,4.38
2023-01-10T18:53:32.959Z,5.78
2023-01-10T18:56:01.442Z,8.18
2023-01-10T18:58:33.256Z,6.68
2023-01-10T19:01:10.082Z,7.30
2023-01-10T19:03:36.887Z,7.97
2023-01-10T19:06:05.497Z,6.90
2023-01-10T19:08:32.308Z,8.77
2023-01-10T19:11:15.827Z,4.97
2023-01-10T19:13:44.471Z,3.63
2023-01-10T19:16:14.223Z,9.70
2023-01-10T19:18:41.738Z,5.38
2023-01-10T19:21:14.874Z,3.42
2023-01-10T19:23:46.784Z,5.78
2023-01-10T19:26:14.284Z,4.50
2023-01-10T19:28:42.779Z,4.95
2023-01-10T19:31:13.841Z,3.55
2023-01-10T19:33:41.745Z,7.53
2023-01-10T19:36:08.667Z,5.57
2023-01-10T19:38:35.544Z,6.38
2023-01-10T19:41:02.424Z,6.25
2023-01-10T19:43:29.625Z,4.75
2023-01-10T19:45:56.297Z,4.30
2023-01-10T19:48:23.725Z,3.20
2023-01-10T19:50:50.471Z,3.03
2023-01-10T19:53:17.411Z,2.72
2023-01-10T19:55:44.013Z,4.75
2023-01-10T19:58:10.688Z,2.70
2023-01-10T20:00:37.308Z,4.28
2023-01-10T20:03:05.275Z,2.50
2023-01-10T20:05:34.709Z,4.00
2023-01-10T20:08:02.170Z,6.13
2023-01-10T20:10:28.870Z,5.22
2023-01-10T20:12:55.425Z,4.63
2023-01-10T20:15:22.097Z,2.10
2023-01-10T20:17:48.646Z,1.73
2023-01-10T20:20:16.736Z,4.40
2023-01-10T20:22:43.390Z,3.35
2023-01-10T20:25:10.190Z,3.72
2023-01-10T20:27:36.812Z,3.83
2023-01-10T20:30:04.556Z,5.00
2023-01-10T20:32:31.220Z,4.00
2023-01-10T20:34:57.787Z,3.17
2023-01-10T20:37:25.088Z,2.53
2023-01-10T20:39:51.765Z,2.47
2023-01-10T20:42:18.328Z,4.38
2023-01-10T20:44:44.894Z,2.78
2023-01-10T20:47:11.481Z,3.03
2023-01-10T20:49:38.045Z,3.63
2023-01-10T20:52:04.755Z,2.03
2023-01-10T20:54:31.334Z,3.35
2023-01-10T20:56:57.947Z,3.10
2023-01-10T20:59:26.244Z,4.13
2023-01-10T21:01:53.014Z,3.05
2023-01-10T21:04:19.877Z,2.80
2023-01-10T21:06:46.536Z,5.80
2023-01-10T21:09:16.529Z,2.72
2023-01-10T21:11:58.007Z,5.18
2023-01-10T21:14:28.496Z,6.10
2023-01-10T21:16:55.459Z,4.63
2023-01-10T21:19:22.047Z,4.30
2023-01-10T21:21:48.656Z,5.25
2023-01-10T21:24:15.936Z,7.40
2023-01-10T21:26:42.540Z,5.95
2023-01-10T21:29:09.800Z,5.00
2023-01-10T21:31:37.194Z,5.88
2023-01-10T21:34:03.790Z,4.93
2023-01-10T21:36:30.390Z,4.97
2023-01-10T21:38:56.925Z,11.13
2023-01-10T21:41:42.254Z,8.90
2023-01-10T21:44:08.949Z,7.35
2023-01-10T21:46:36.224Z,6.07
2023-01-10T21:49:04.290Z,6.15
2023-01-10T21:51:30.853Z,8.15
2023-01-10T21:53:57.816Z,6.65
2023-01-10T21:56:24.680Z,7.47
2023-01-10T21:58:52.320Z,11.68
2023-01-10T22:01:19.049Z,6.30
2023-01-10T22:03:46.226Z,4.90
2023-01-10T22:06:13.229Z,7.40
2023-01-10T22:08:39.932Z,5.85
2023-01-10T22:11:07.203Z,7.78
2023-01-10T22:13:34.216Z,6.35
2023-01-10T22:16:01.641Z,7.47
2023-01-10T22:18:29.897Z,5.97
2023-01-10T22:20:57.627Z,6.03
2023-01-10T22:23:24.712Z,6.15
2023-01-10T22:26:03.560Z,7.93
2023-01-10T22:28:30.654Z,3.97
2023-01-10T22:30:57.709Z,6.35
2023-01-10T22:33:29.028Z,8.82
2023-01-10T22:35:55.784Z,5.32
2023-01-10T22:38:22.368Z,4.07
2023-01-10T22:40:49.058Z,6.60
2023-01-10T22:43:15.731Z,5.28
2023-01-10T22:45:43.131Z,5.18
2023-01-10T22:48:10.538Z,8.93
2023-01-10T22:50:37.138Z,8.07
2023-01-10T22:53:04.253Z,9.88
2023-01-10T22:55:30.949Z,6.43
2023-01-10T22:57:57.580Z,6.72
2023-01-10T23:00:24.147Z,6.18
2023-01-10T23:02:50.771Z,8.45
2023-01-10T23:05:17.349Z,9.18
2023-01-10T23:07:43.925Z,7.28
2023-01-10T23:10:28.516Z,5.45
2023-01-10T23:12:56.042Z,7.47
2023-01-10T23:15:22.673Z,5.50
2023-01-10T23:17:49.381Z,5.95
2023-01-10T23:20:17.461Z,8.35
2023-01-10T23:22:44.090Z,5.47
2023-01-10T23:25:10.647Z,6.03
2023-01-10T23:27:38.508Z,11.23
2023-01-10T23:30:10.345Z,5.68
2023-01-10T23:32:36.933Z,5.22
2023-01-10T23:35:04.188Z,7.20
2023-01-10T23:37:30.740Z,8.77
2023-01-10T23:39:57.395Z,8.07
2023-01-10T23:42:23.904Z,6.55
2023-01-10T23:44:50.414Z,5.20
2023-01-10T23:47:17.087Z,4.70
2023-01-10T23:49:43.647Z,3.58
2023-01-10T23:52:10.182Z,5.82
2023-01-10T23:54:36.698Z,3.58
2023-01-10T23:57:03.223Z,6.95
2023-01-10T23:59:29.812Z,5.95
